sensor_id;sensor_type;location;lat;lon;timestamp;pressure;altitude;pressure_sealevel;temperature;humidity
59608;BME280;45426;44.726;10.390;2022-12-18T00:06:46;101724.44;;;7.03;100.00
59608;BME280;45426;44.726;10.390;2022-12-18T00:10:01;101715.47;;;7.12;100.00
59608;BME280;45426;44.726;10.390;2022-12-18T00:13:06;101721.94;;;7.66;100.00
59608;BME280;45426;44.726;10.390;2022-12-18T00:16:27;101724.44;;;7.57;100.00
59608;BME280;45426;44.726;10.390;2022-12-18T00:19:24;101736.72;;;7.34;100.00
59608;BME280;45426;44.726;10.390;2022-12-18T00:21:55;101746.88;;;7.63;100.00
59608;BME280;45426;44.726;10.390;2022-12-18T00:27:51;101743.31;;;7.68;100.00
59608;BME280;45426;44.726;10.390;2022-12-18T00:30:47;101738.38;;;7.30;100.00
59608;BME280;45426;44.726;10.390;2022-12-18T00:33:42;101734.81;;;7.40;100.00
59608;BME280;45426;44.726;10.390;2022-12-18T00:36:24;101742.78;;;7.66;100.00
59608;BME280;45426;44.726;10.390;2022-12-18T00:39:13;101737.59;;;7.25;100.00
59608;BME280;45426;44.726;10.390;2022-12-18T00:41:58;101747.91;;;7.67;100.00
59608;BME280;45426;44.726;10.390;2022-12-18T00:44:45;101741.38;;;7.73;100.00
59608;BME280;45426;44.726;10.390;2022-12-18T00:47:15;101741.25;;;7.49;100.00
59608;BME280;45426;44.726;10.390;2022-12-18T00:49:52;101737.88;;;7.73;100.00
59608;BME280;45426;44.726;10.390;2022-12-18T00:52:50;101738.72;;;7.13;100.00
59608;BME280;45426;44.726;10.390;2022-12-18T01:02:30;101735.75;;;7.65;100.00
59608;BME280;45426;44.726;10.390;2022-12-18T01:05:44;101747.84;;;7.28;100.00
59608;BME280;45426;44.726;10.390;2022-12-18T01:08:18;101747.34;;;7.70;100.00
59608;BME280;45426;44.726;10.390;2022-12-18T01:15:14;101745.97;;;7.78;100.00
59608;BME280;45426;44.726;10.390;2022-12-18T01:24:52;101746.81;;;7.68;100.00
59608;BME280;45426;44.726;10.390;2022-12-18T01:27:25;101754.56;;;7.35;100.00
59608;BME280;45426;44.726;10.390;2022-12-18T01:30:22;101763.97;;;7.48;100.00
59608;BME280;45426;44.726;10.390;2022-12-18T01:33:06;101767.75;;;7.52;100.00
59608;BME280;45426;44.726;10.390;2022-12-18T01:35:42;101764.91;;;7.78;100.00
59608;BME280;45426;44.726;10.390;2022-12-18T01:38:16;101775.16;;;7.76;100.00
59608;BME280;45426;44.726;10.390;2022-12-18T01:41:05;101781.16;;;7.73;100.00
59608;BME280;45426;44.726;10.390;2022-12-18T01:43:55;101773.34;;;7.66;100.00
59608;BME280;45426;44.726;10.390;2022-12-18T01:46:26;101780.78;;;7.35;100.00
59608;BME280;45426;44.726;10.390;2022-12-18T01:48:57;101783.94;;;7.57;100.00
59608;BME280;45426;44.726;10.390;2022-12-18T01:51:31;101792.00;;;7.68;100.00
59608;BME280;45426;44.726;10.390;2022-12-18T01:54:08;101802.31;;;7.55;100.00
59608;BME280;45426;44.726;10.390;2022-12-18T01:56:51;101810.56;;;7.30;100.00
59608;BME280;45426;44.726;10.390;2022-12-18T02:02:21;101816.81;;;7.20;100.00
59608;BME280;45426;44.726;10.390;2022-12-18T02:04:52;101816.03;;;7.09;100.00
59608;BME280;45426;44.726;10.390;2022-12-18T02:07:45;101842.00;;;7.00;100.00
59608;BME280;45426;44.726;10.390;2022-12-18T02:18:49;101850.53;;;7.38;100.00
59608;BME280;45426;44.726;10.390;2022-12-18T02:29:04;101862.50;;;7.01;100.00
59608;BME280;45426;44.726;10.390;2022-12-18T02:35:09;101871.16;;;7.13;100.00
59608;BME280;45426;44.726;10.390;2022-12-18T02:47:30;101862.31;;;7.73;100.00
59608;BME280;45426;44.726;10.390;2022-12-18T03:00:33;101855.50;;;6.90;100.00
59608;BME280;45426;44.726;10.390;2022-12-18T03:10:20;101878.72;;;7.01;100.00
59608;BME280;45426;44.726;10.390;2022-12-18T03:13:47;101882.53;;;7.05;100.00
59608;BME280;45426;44.726;10.390;2022-12-18T03:16:26;101882.53;;;6.95;100.00
59608;BME280;45426;44.726;10.390;2022-12-18T03:19:53;101887.38;;;6.62;100.00
59608;BME280;45426;44.726;10.390;2022-12-18T03:26:34;101891.69;;;6.58;100.00
59608;BME280;45426;44.726;10.390;2022-12-18T03:29:14;101899.00;;;6.52;100.00
59608;BME280;45426;44.726;10.390;2022-12-18T03:32:04;101900.88;;;6.41;100.00
59608;BME280;45426;44.726;10.390;2022-12-18T03:34:40;101897.34;;;6.41;100.00
59608;BME280;45426;44.726;10.390;2022-12-18T03:37:27;101906.22;;;6.16;100.00
59608;BME280;45426;44.726;10.390;2022-12-18T03:46:49;101903.47;;;6.06;100.00
59608;BME280;45426;44.726;10.390;2022-12-18T03:56:57;101914.81;;;6.08;100.00
59608;BME280;45426;44.726;10.390;2022-12-18T04:00:09;101924.47;;;5.93;100.00
59608;BME280;45426;44.726;10.390;2022-12-18T04:02:51;101935.25;;;5.93;100.00
59608;BME280;45426;44.726;10.390;2022-12-18T04:05:30;101946.66;;;6.06;100.00
59608;BME280;45426;44.726;10.390;2022-12-18T04:10:57;101950.97;;;6.01;100.00
59608;BME280;45426;44.726;10.390;2022-12-18T04:16:58;101962.91;;;6.21;100.00
59608;BME280;45426;44.726;10.390;2022-12-18T04:19:37;101950.59;;;6.61;100.00
59608;BME280;45426;44.726;10.390;2022-12-18T04:26:00;101948.91;;;6.29;100.00
59608;BME280;45426;44.726;10.390;2022-12-18T04:29:07;101958.53;;;6.05;100.00
59608;BME280;45426;44.726;10.390;2022-12-18T04:31:54;101961.81;;;6.17;100.00
59608;BME280;45426;44.726;10.390;2022-12-18T04:34:54;101965.94;;;6.50;100.00
59608;BME280;45426;44.726;10.390;2022-12-18T04:37:30;101972.72;;;6.58;100.00
59608;BME280;45426;44.726;10.390;2022-12-18T04:43:06;101975.69;;;6.56;100.00
59608;BME280;45426;44.726;10.390;2022-12-18T04:46:35;101974.84;;;6.51;100.00
59608;BME280;45426;44.726;10.390;2022-12-18T04:49:13;101972.41;;;6.39;100.00
59608;BME280;45426;44.726;10.390;2022-12-18T04:51:58;101969.47;;;6.46;100.00
59608;BME280;45426;44.726;10.390;2022-12-18T04:54:40;101974.53;;;6.32;100.00
59608;BME280;45426;44.726;10.390;2022-12-18T04:57:29;101982.63;;;6.21;100.00
59608;BME280;45426;44.726;10.390;2022-12-18T05:00:13;101982.97;;;6.46;100.00
59608;BME280;45426;44.726;10.390;2022-12-18T05:03:12;101992.09;;;6.39;100.00
59608;BME280;45426;44.726;10.390;2022-12-18T05:09:35;102006.84;;;6.06;100.00
59608;BME280;45426;44.726;10.390;2022-12-18T05:12:32;102012.34;;;6.27;100.00
59608;BME280;45426;44.726;10.390;2022-12-18T05:15:50;102006.09;;;6.21;100.00
59608;BME280;45426;44.726;10.390;2022-12-18T05:18:46;102000.63;;;6.06;100.00
59608;BME280;45426;44.726;10.390;2022-12-18T05:21:37;102018.91;;;5.98;100.00
59608;BME280;45426;44.726;10.390;2022-12-18T05:24:44;102018.44;;;6.07;100.00
59608;BME280;45426;44.726;10.390;2022-12-18T05:30:31;102017.25;;;5.92;100.00
59608;BME280;45426;44.726;10.390;2022-12-18T05:33:42;102027.84;;;5.99;100.00
59608;BME280;45426;44.726;10.390;2022-12-18T05:36:22;102031.28;;;5.94;100.00
59608;BME280;45426;44.726;10.390;2022-12-18T05:38:55;102040.94;;;5.85;100.00
59608;BME280;45426;44.726;10.390;2022-12-18T05:41:56;102049.22;;;5.73;100.00
59608;BME280;45426;44.726;10.390;2022-12-18T05:44:27;102054.47;;;5.53;100.00
59608;BME280;45426;44.726;10.390;2022-12-18T05:47:27;102059.06;;;5.52;100.00
59608;BME280;45426;44.726;10.390;2022-12-18T05:50:11;102069.69;;;5.32;100.00
59608;BME280;45426;44.726;10.390;2022-12-18T05:52:39;102068.00;;;5.25;100.00
59608;BME280;45426;44.726;10.390;2022-12-18T05:55:27;102066.44;;;5.02;100.00
59608;BME280;45426;44.726;10.390;2022-12-18T05:57:53;102053.28;;;5.38;100.00
59608;BME280;45426;44.726;10.390;2022-12-18T06:00:19;102060.59;;;5.43;100.00
59608;BME280;45426;44.726;10.390;2022-12-18T06:02:48;102083.13;;;4.99;100.00
59608;BME280;45426;44.726;10.390;2022-12-18T06:05:19;102091.75;;;5.01;100.00
59608;BME280;45426;44.726;10.390;2022-12-18T06:07:59;102089.81;;;4.97;100.00
59608;BME280;45426;44.726;10.390;2022-12-18T06:10:33;102088.44;;;5.21;100.00
59608;BME280;45426;44.726;10.390;2022-12-18T06:13:19;102083.50;;;5.13;100.00
59608;BME280;45426;44.726;10.390;2022-12-18T06:15:52;102091.41;;;5.52;100.00
59608;BME280;45426;44.726;10.390;2022-12-18T06:18:36;102094.00;;;5.37;100.00
59608;BME280;45426;44.726;10.390;2022-12-18T06:21:33;102098.59;;;5.41;100.00
59608;BME280;45426;44.726;10.390;2022-12-18T06:24:10;102107.00;;;5.45;100.00
59608;BME280;45426;44.726;10.390;2022-12-18T06:26:54;102107.66;;;5.62;100.00
59608;BME280;45426;44.726;10.390;2022-12-18T06:29:45;102108.72;;;5.29;100.00
59608;BME280;45426;44.726;10.390;2022-12-18T06:32:22;102116.25;;;5.00;100.00
59608;BME280;45426;44.726;10.390;2022-12-18T06:34:53;102120.97;;;5.42;100.00
59608;BME280;45426;44.726;10.390;2022-12-18T06:37:25;102122.94;;;4.97;100.00
59608;BME280;45426;44.726;10.390;2022-12-18T06:40:07;102135.53;;;4.92;100.00
59608;BME280;45426;44.726;10.390;2022-12-18T06:43:04;102133.44;;;5.21;100.00
59608;BME280;45426;44.726;10.390;2022-12-18T06:49:06;102150.09;;;5.18;100.00
59608;BME280;45426;44.726;10.390;2022-12-18T06:51:57;102152.22;;;4.89;100.00
59608;BME280;45426;44.726;10.390;2022-12-18T06:55:00;102168.03;;;4.63;100.00
59608;BME280;45426;44.726;10.390;2022-12-18T06:58:12;102168.78;;;4.80;100.00
59608;BME280;45426;44.726;10.390;2022-12-18T07:01:06;102165.63;;;4.83;100.00
59608;BME280;45426;44.726;10.390;2022-12-18T07:03:40;102163.41;;;4.80;100.00
59608;BME280;45426;44.726;10.390;2022-12-18T07:06:19;102185.47;;;4.77;100.00
59608;BME280;45426;44.726;10.390;2022-12-18T07:08:53;102188.16;;;4.77;100.00
59608;BME280;45426;44.726;10.390;2022-12-18T07:11:25;102183.97;;;4.86;100.00
59608;BME280;45426;44.726;10.390;2022-12-18T07:14:38;102177.34;;;4.94;100.00
59608;BME280;45426;44.726;10.390;2022-12-18T07:17:19;102175.94;;;4.70;100.00
59608;BME280;45426;44.726;10.390;2022-12-18T07:26:14;102177.50;;;4.88;100.00
59608;BME280;45426;44.726;10.390;2022-12-18T07:28:47;102195.38;;;5.43;100.00
59608;BME280;45426;44.726;10.390;2022-12-18T07:31:43;102189.94;;;5.38;100.00
59608;BME280;45426;44.726;10.390;2022-12-18T07:34:25;102191.78;;;5.10;100.00
59608;BME280;45426;44.726;10.390;2022-12-18T07:37:21;102197.16;;;5.10;100.00
59608;BME280;45426;44.726;10.390;2022-12-18T07:39:51;102200.72;;;5.65;100.00
59608;BME280;45426;44.726;10.390;2022-12-18T07:42:31;102201.81;;;5.37;100.00
59608;BME280;45426;44.726;10.390;2022-12-18T07:45:19;102211.25;;;5.17;100.00
59608;BME280;45426;44.726;10.390;2022-12-18T07:47:58;102218.16;;;5.30;100.00
59608;BME280;45426;44.726;10.390;2022-12-18T07:50:39;102219.75;;;5.53;100.00
59608;BME280;45426;44.726;10.390;2022-12-18T07:53:05;102220.94;;;5.40;100.00
59608;BME280;45426;44.726;10.390;2022-12-18T07:55:31;102216.44;;;5.46;100.00
59608;BME280;45426;44.726;10.390;2022-12-18T07:58:07;102224.38;;;5.58;100.00
59608;BME280;45426;44.726;10.390;2022-12-18T08:00:39;102233.44;;;5.74;100.00
59608;BME280;45426;44.726;10.390;2022-12-18T08:03:15;102234.91;;;5.87;100.00
59608;BME280;45426;44.726;10.390;2022-12-18T08:05:52;102240.66;;;5.41;100.00
59608;BME280;45426;44.726;10.390;2022-12-18T08:18:00;102257.00;;;6.48;100.00
59608;BME280;45426;44.726;10.390;2022-12-18T08:20:54;102264.97;;;6.28;100.00
59608;BME280;45426;44.726;10.390;2022-12-18T08:23:19;102268.75;;;6.27;100.00
59608;BME280;45426;44.726;10.390;2022-12-18T08:26:11;102280.13;;;6.71;100.00
59608;BME280;45426;44.726;10.390;2022-12-18T08:28:44;102285.81;;;6.37;100.00
59608;BME280;45426;44.726;10.390;2022-12-18T08:31:24;102283.44;;;6.84;100.00
59608;BME280;45426;44.726;10.390;2022-12-18T08:34:00;102287.53;;;6.91;100.00
59608;BME280;45426;44.726;10.390;2022-12-18T08:36:35;102294.19;;;6.73;100.00
59608;BME280;45426;44.726;10.390;2022-12-18T08:39:06;102295.78;;;6.69;100.00
59608;BME280;45426;44.726;10.390;2022-12-18T08:41:36;102299.34;;;6.80;100.00
59608;BME280;45426;44.726;10.390;2022-12-18T08:44:02;102298.72;;;6.63;100.00
59608;BME280;45426;44.726;10.390;2022-12-18T08:46:45;102306.81;;;7.05;100.00
59608;BME280;45426;44.726;10.390;2022-12-18T08:49:11;102305.97;;;6.57;100.00
59608;BME280;45426;44.726;10.390;2022-12-18T08:51:38;102318.53;;;6.41;100.00
59608;BME280;45426;44.726;10.390;2022-12-18T08:54:04;102308.28;;;6.43;100.00
59608;BME280;45426;44.726;10.390;2022-12-18T08:56:36;102310.06;;;6.65;100.00
59608;BME280;45426;44.726;10.390;2022-12-18T08:59:04;102315.69;;;6.26;100.00
59608;BME280;45426;44.726;10.390;2022-12-18T09:01:50;102318.06;;;6.92;100.00
59608;BME280;45426;44.726;10.390;2022-12-18T09:04:30;102312.03;;;7.22;100.00
59608;BME280;45426;44.726;10.390;2022-12-18T09:07:17;102312.66;;;6.87;100.00
59608;BME280;45426;44.726;10.390;2022-12-18T09:09:44;102316.81;;;6.67;100.00
59608;BME280;45426;44.726;10.390;2022-12-18T09:12:30;102325.13;;;6.93;100.00
59608;BME280;45426;44.726;10.390;2022-12-18T09:15:08;102326.47;;;6.53;100.00
59608;BME280;45426;44.726;10.390;2022-12-18T09:18:05;102335.94;;;6.23;100.00
59608;BME280;45426;44.726;10.390;2022-12-18T09:20:57;102332.16;;;6.94;100.00
59608;BME280;45426;44.726;10.390;2022-12-18T09:23:25;102335.41;;;6.96;100.00
59608;BME280;45426;44.726;10.390;2022-12-18T09:26:11;102327.75;;;7.30;100.00
59608;BME280;45426;44.726;10.390;2022-12-18T09:28:39;102328.19;;;6.69;100.00
59608;BME280;45426;44.726;10.390;2022-12-18T09:31:08;102334.50;;;7.33;100.00
59608;BME280;45426;44.726;10.390;2022-12-18T09:33:39;102330.53;;;7.51;100.00
59608;BME280;45426;44.726;10.390;2022-12-18T09:36:09;102324.28;;;7.40;100.00
59608;BME280;45426;44.726;10.390;2022-12-18T09:38:35;102324.31;;;6.92;100.00
59608;BME280;45426;44.726;10.390;2022-12-18T09:43:45;102317.56;;;6.95;100.00
59608;BME280;45426;44.726;10.390;2022-12-18T09:46:18;102314.78;;;7.32;100.00
59608;BME280;45426;44.726;10.390;2022-12-18T09:48:47;102310.47;;;7.36;100.00
59608;BME280;45426;44.726;10.390;2022-12-18T09:51:26;102313.97;;;7.32;100.00
59608;BME280;45426;44.726;10.390;2022-12-18T09:53:59;102313.91;;;7.16;100.00
59608;BME280;45426;44.726;10.390;2022-12-18T09:56:28;102308.59;;;7.37;100.00
59608;BME280;45426;44.726;10.390;2022-12-18T09:59:02;102301.97;;;7.07;100.00
59608;BME280;45426;44.726;10.390;2022-12-18T10:01:29;102306.25;;;6.60;100.00
59608;BME280;45426;44.726;10.390;2022-12-18T10:03:55;102305.31;;;6.82;100.00
59608;BME280;45426;44.726;10.390;2022-12-18T10:06:55;102313.25;;;6.99;100.00
59608;BME280;45426;44.726;10.390;2022-12-18T10:09:33;102300.22;;;7.44;100.00
59608;BME280;45426;44.726;10.390;2022-12-18T10:12:41;102294.59;;;7.61;100.00
59608;BME280;45426;44.726;10.390;2022-12-18T10:18:05;102304.81;;;6.85;100.00
59608;BME280;45426;44.726;10.390;2022-12-18T10:20:44;102305.78;;;7.16;100.00
59608;BME280;45426;44.726;10.390;2022-12-18T10:26:21;102305.72;;;7.80;100.00
59608;BME280;45426;44.726;10.390;2022-12-18T10:28:46;102304.66;;;7.07;100.00
59608;BME280;45426;44.726;10.390;2022-12-18T10:31:21;102307.97;;;6.72;100.00
59608;BME280;45426;44.726;10.390;2022-12-18T10:33:47;102303.72;;;6.49;100.00
59608;BME280;45426;44.726;10.390;2022-12-18T10:36:13;102297.84;;;6.25;100.00
59608;BME280;45426;44.726;10.390;2022-12-18T10:38:38;102302.72;;;7.03;100.00
59608;BME280;45426;44.726;10.390;2022-12-18T10:41:23;102293.59;;;7.92;100.00
59608;BME280;45426;44.726;10.390;2022-12-18T10:46:36;102301.19;;;8.11;100.00
59608;BME280;45426;44.726;10.390;2022-12-18T10:49:02;102295.75;;;7.80;100.00
59608;BME280;45426;44.726;10.390;2022-12-18T10:51:32;102300.31;;;7.06;100.00
59608;BME280;45426;44.726;10.390;2022-12-18T10:54:04;102294.72;;;8.12;100.00
59608;BME280;45426;44.726;10.390;2022-12-18T10:56:34;102290.34;;;7.80;100.00
59608;BME280;45426;44.726;10.390;2022-12-18T10:59:09;102300.63;;;8.04;100.00
59608;BME280;45426;44.726;10.390;2022-12-18T11:01:55;102293.00;;;7.75;100.00
59608;BME280;45426;44.726;10.390;2022-12-18T11:04:31;102290.91;;;8.03;100.00
59608;BME280;45426;44.726;10.390;2022-12-18T11:07:04;102294.19;;;8.61;100.00
59608;BME280;45426;44.726;10.390;2022-12-18T11:09:46;102288.44;;;7.96;100.00
59608;BME280;45426;44.726;10.390;2022-12-18T11:12:39;102297.63;;;7.06;100.00
59608;BME280;45426;44.726;10.390;2022-12-18T11:15:06;102299.03;;;8.28;100.00
59608;BME280;45426;44.726;10.390;2022-12-18T11:17:33;102296.88;;;8.61;100.00
59608;BME280;45426;44.726;10.390;2022-12-18T11:20:05;102293.31;;;8.91;100.00
59608;BME280;45426;44.726;10.390;2022-12-18T11:22:37;102293.91;;;8.68;100.00
59608;BME280;45426;44.726;10.390;2022-12-18T11:27:53;102297.97;;;8.50;100.00
59608;BME280;45426;44.726;10.390;2022-12-18T11:30:30;102290.66;;;8.55;100.00
59608;BME280;45426;44.726;10.390;2022-12-18T11:33:34;102291.38;;;8.97;100.00
59608;BME280;45426;44.726;10.390;2022-12-18T11:36:07;102288.00;;;9.31;100.00
59608;BME280;45426;44.726;10.390;2022-12-18T11:38:38;102277.88;;;8.87;100.00
59608;BME280;45426;44.726;10.390;2022-12-18T11:41:24;102276.97;;;9.07;100.00
59608;BME280;45426;44.726;10.390;2022-12-18T11:44:14;102279.00;;;8.34;100.00
59608;BME280;45426;44.726;10.390;2022-12-18T11:46:53;102279.03;;;8.55;100.00
59608;BME280;45426;44.726;10.390;2022-12-18T11:49:49;102279.53;;;8.01;100.00
59608;BME280;45426;44.726;10.390;2022-12-18T11:52:22;102278.47;;;8.68;100.00
59608;BME280;45426;44.726;10.390;2022-12-18T11:54:54;102279.00;;;8.76;100.00
59608;BME280;45426;44.726;10.390;2022-12-18T12:00:04;102275.97;;;8.92;100.00
59608;BME280;45426;44.726;10.390;2022-12-18T12:09:03;102285.75;;;8.73;100.00
59608;BME280;45426;44.726;10.390;2022-12-18T12:17:44;102281.59;;;9.11;100.00
59608;BME280;45426;44.726;10.390;2022-12-18T12:20:20;102274.91;;;8.83;100.00
59608;BME280;45426;44.726;10.390;2022-12-18T12:25:41;102266.50;;;8.74;100.00
59608;BME280;45426;44.726;10.390;2022-12-18T12:34:16;102272.25;;;8.42;100.00
59608;BME280;45426;44.726;10.390;2022-12-18T12:37:08;102282.25;;;8.26;100.00
59608;BME280;45426;44.726;10.390;2022-12-18T12:39:38;102272.78;;;8.44;100.00
59608;BME280;45426;44.726;10.390;2022-12-18T12:42:13;102268.97;;;8.45;100.00
59608;BME280;45426;44.726;10.390;2022-12-18T12:45:22;102268.13;;;7.73;100.00
59608;BME280;45426;44.726;10.390;2022-12-18T12:48:01;102269.25;;;7.97;100.00
59608;BME280;45426;44.726;10.390;2022-12-18T12:50:33;102264.38;;;8.25;100.00
59608;BME280;45426;44.726;10.390;2022-12-18T12:53:01;102277.03;;;7.73;100.00
59608;BME280;45426;44.726;10.390;2022-12-18T12:55:33;102267.63;;;8.17;100.00
59608;BME280;45426;44.726;10.390;2022-12-18T12:58:14;102267.03;;;7.69;100.00
59608;BME280;45426;44.726;10.390;2022-12-18T13:01:08;102267.88;;;8.00;100.00
59608;BME280;45426;44.726;10.390;2022-12-18T13:06:10;102263.81;;;7.92;100.00
59608;BME280;45426;44.726;10.390;2022-12-18T13:09:00;102254.91;;;7.97;100.00
59608;BME280;45426;44.726;10.390;2022-12-18T13:11:32;102252.47;;;8.11;100.00
59608;BME280;45426;44.726;10.390;2022-12-18T13:14:27;102252.19;;;8.07;100.00
59608;BME280;45426;44.726;10.390;2022-12-18T13:17:16;102252.19;;;8.12;100.00
59608;BME280;45426;44.726;10.390;2022-12-18T13:19:42;102249.22;;;8.04;100.00
59608;BME280;45426;44.726;10.390;2022-12-18T13:22:46;102251.38;;;7.86;100.00
59608;BME280;45426;44.726;10.390;2022-12-18T13:25:33;102242.72;;;7.89;100.00
59608;BME280;45426;44.726;10.390;2022-12-18T13:28:03;102247.84;;;7.81;100.00
59608;BME280;45426;44.726;10.390;2022-12-18T13:39:33;102261.66;;;7.94;100.00
59608;BME280;45426;44.726;10.390;2022-12-18T13:41:26;102263.50;;;7.68;100.00
59608;BME280;45426;44.726;10.390;2022-12-18T13:46:48;102255.16;;;7.95;100.00
59608;BME280;45426;44.726;10.390;2022-12-18T13:51:50;102252.97;;;7.77;100.00
59608;BME280;45426;44.726;10.390;2022-12-18T13:56:54;102268.38;;;7.66;100.00
59608;BME280;45426;44.726;10.390;2022-12-18T13:59:24;102253.50;;;7.79;100.00
59608;BME280;45426;44.726;10.390;2022-12-18T14:01:54;102243.16;;;7.40;100.00
59608;BME280;45426;44.726;10.390;2022-12-18T14:04:27;102253.97;;;7.45;100.00
59608;BME280;45426;44.726;10.390;2022-12-18T14:07:06;102257.13;;;7.22;100.00
59608;BME280;45426;44.726;10.390;2022-12-18T14:09:39;102259.97;;;7.57;100.00
59608;BME280;45426;44.726;10.390;2022-12-18T14:12:16;102257.25;;;7.52;100.00
59608;BME280;45426;44.726;10.390;2022-12-18T14:15:00;102255.09;;;7.54;100.00
59608;BME280;45426;44.726;10.390;2022-12-18T14:17:29;102257.44;;;7.25;100.00
59608;BME280;45426;44.726;10.390;2022-12-18T14:19:55;102257.28;;;7.57;100.00
59608;BME280;45426;44.726;10.390;2022-12-18T14:22:24;102256.16;;;7.53;100.00
59608;BME280;45426;44.726;10.390;2022-12-18T14:25:16;102250.78;;;7.58;100.00
59608;BME280;45426;44.726;10.390;2022-12-18T14:27:53;102261.63;;;6.90;100.00
59608;BME280;45426;44.726;10.390;2022-12-18T14:30:32;102262.16;;;6.92;100.00
59608;BME280;45426;44.726;10.390;2022-12-18T14:35:30;102257.13;;;6.64;100.00
59608;BME280;45426;44.726;10.390;2022-12-18T14:40:42;102257.16;;;6.69;100.00
59608;BME280;45426;44.726;10.390;2022-12-18T14:43:14;102260.41;;;6.71;100.00
59608;BME280;45426;44.726;10.390;2022-12-18T14:45:42;102253.09;;;7.29;100.00
59608;BME280;45426;44.726;10.390;2022-12-18T14:48:41;102251.06;;;6.89;100.00
59608;BME280;45426;44.726;10.390;2022-12-18T14:54:05;102258.25;;;7.26;100.00
59608;BME280;45426;44.726;10.390;2022-12-18T14:57:06;102256.16;;;7.48;100.00
59608;BME280;45426;44.726;10.390;2022-12-18T14:59:43;102262.06;;;7.30;100.00
59608;BME280;45426;44.726;10.390;2022-12-18T15:02:23;102259.34;;;7.30;100.00
59608;BME280;45426;44.726;10.390;2022-12-18T15:07:26;102265.34;;;6.79;100.00
59608;BME280;45426;44.726;10.390;2022-12-18T15:10:17;102276.81;;;6.59;100.00
59608;BME280;45426;44.726;10.390;2022-12-18T15:20:40;102280.41;;;6.75;100.00
59608;BME280;45426;44.726;10.390;2022-12-18T15:31:33;102293.19;;;5.88;100.00
59608;BME280;45426;44.726;10.390;2022-12-18T15:34:12;102307.88;;;5.75;100.00
59608;BME280;45426;44.726;10.390;2022-12-18T15:36:38;102302.78;;;6.00;100.00
59608;BME280;45426;44.726;10.390;2022-12-18T15:39:09;102298.81;;;6.08;100.00
59608;BME280;45426;44.726;10.390;2022-12-18T15:41:36;102314.72;;;5.82;100.00
59608;BME280;45426;44.726;10.390;2022-12-18T15:47:15;102316.28;;;5.78;100.00
59608;BME280;45426;44.726;10.390;2022-12-18T15:49:44;102322.09;;;5.92;100.00
59608;BME280;45426;44.726;10.390;2022-12-18T15:52:28;102314.22;;;5.86;100.00
59608;BME280;45426;44.726;10.390;2022-12-18T15:55:21;102332.03;;;5.64;100.00
59608;BME280;45426;44.726;10.390;2022-12-18T15:58:06;102341.44;;;5.40;100.00
59608;BME280;45426;44.726;10.390;2022-12-18T16:00:41;102339.88;;;5.44;100.00
59608;BME280;45426;44.726;10.390;2022-12-18T16:03:22;102333.22;;;5.52;100.00
59608;BME280;45426;44.726;10.390;2022-12-18T16:06:06;102336.06;;;5.40;100.00
59608;BME280;45426;44.726;10.390;2022-12-18T16:08:37;102336.56;;;4.98;100.00
59608;BME280;45426;44.726;10.390;2022-12-18T16:11:26;102337.81;;;4.90;100.00
59608;BME280;45426;44.726;10.390;2022-12-18T16:14:21;102339.44;;;4.91;100.00
59608;BME280;45426;44.726;10.390;2022-12-18T16:16:53;102344.69;;;4.64;100.00
59608;BME280;45426;44.726;10.390;2022-12-18T16:19:19;102343.00;;;4.97;100.00
59608;BME280;45426;44.726;10.390;2022-12-18T16:21:47;102340.63;;;5.00;100.00
59608;BME280;45426;44.726;10.390;2022-12-18T16:24:19;102334.84;;;4.92;100.00
59608;BME280;45426;44.726;10.390;2022-12-18T16:26:51;102345.81;;;4.51;100.00
59608;BME280;45426;44.726;10.390;2022-12-18T16:29:33;102345.84;;;4.22;100.00
59608;BME280;45426;44.726;10.390;2022-12-18T16:32:00;102346.84;;;4.33;100.00
59608;BME280;45426;44.726;10.390;2022-12-18T16:34:28;102348.28;;;4.53;100.00
59608;BME280;45426;44.726;10.390;2022-12-18T16:36:56;102349.41;;;4.40;100.00
59608;BME280;45426;44.726;10.390;2022-12-18T16:39:24;102345.94;;;4.95;100.00
59608;BME280;45426;44.726;10.390;2022-12-18T16:41:53;102348.19;;;5.20;100.00
59608;BME280;45426;44.726;10.390;2022-12-18T16:44:18;102348.59;;;4.90;100.00
59608;BME280;45426;44.726;10.390;2022-12-18T16:46:52;102354.69;;;4.52;100.00
59608;BME280;45426;44.726;10.390;2022-12-18T16:49:18;102357.38;;;4.35;100.00
59608;BME280;45426;44.726;10.390;2022-12-18T16:51:45;102350.22;;;4.40;100.00
59608;BME280;45426;44.726;10.390;2022-12-18T16:54:13;102362.06;;;4.11;100.00
59608;BME280;45426;44.726;10.390;2022-12-18T16:56:40;102356.22;;;3.73;100.00
59608;BME280;45426;44.726;10.390;2022-12-18T16:59:09;102349.56;;;3.76;100.00
59608;BME280;45426;44.726;10.390;2022-12-18T17:01:35;102340.53;;;4.11;100.00
59608;BME280;45426;44.726;10.390;2022-12-18T17:04:03;102347.63;;;4.17;100.00
59608;BME280;45426;44.726;10.390;2022-12-18T17:06:30;102345.38;;;4.25;100.00
59608;BME280;45426;44.726;10.390;2022-12-18T17:08:57;102347.63;;;4.17;100.00
59608;BME280;45426;44.726;10.390;2022-12-18T17:11:26;102338.38;;;4.41;100.00
59608;BME280;45426;44.726;10.390;2022-12-18T17:14:13;102347.25;;;4.25;100.00
59608;BME280;45426;44.726;10.390;2022-12-18T17:16:39;102343.75;;;4.41;100.00
59608;BME280;45426;44.726;10.390;2022-12-18T17:19:04;102345.97;;;4.78;100.00
59608;BME280;45426;44.726;10.390;2022-12-18T17:21:30;102352.25;;;4.67;100.00
59608;BME280;45426;44.726;10.390;2022-12-18T17:23:58;102353.97;;;4.73;100.00